createdAt,value
2022-07-30T00:01:53.338Z,9.10
2022-07-30T00:06:55.025Z,12.18
2022-07-30T00:11:57.118Z,8.52
2022-07-30T00:16:59.791Z,7.85
2022-07-30T00:22:01.829Z,7.53
2022-07-30T00:27:03.929Z,9.40
2022-07-30T00:32:06.167Z,8.93
2022-07-30T00:37:07.884Z,8.57
2022-07-30T00:42:09.560Z,8.98
2022-07-30T00:47:11.309Z,8.73
2022-07-30T00:52:13.746Z,9.40
2022-07-30T00:57:16.108Z,8.35
2022-07-30T01:02:17.974Z,13.65
2022-07-30T01:07:19.879Z,8.47
2022-07-30T01:12:26.433Z,10.95
2022-07-30T01:17:28.467Z,9.07
2022-07-30T01:22:58.083Z,7.85
2022-07-30T01:28:06.170Z,9.00
2022-07-30T01:33:11.856Z,10.15
2022-07-30T01:38:16.661Z,9.05
2022-07-30T01:43:20.864Z,11.55
2022-07-30T01:48:25.334Z,9.77
2022-07-30T01:53:31.357Z,8.52
2022-07-30T01:58:36.410Z,7.38
2022-07-30T02:03:46.881Z,7.78
2022-07-30T02:08:55.173Z,10.43
2022-07-30T02:13:58.833Z,8.95
2022-07-30T02:19:11.012Z,8.97
2022-07-30T02:24:20.471Z,12.95
2022-07-30T02:29:24.069Z,10.80
2022-07-30T02:34:28.760Z,11.20
2022-07-30T02:39:36.434Z,10.48
2022-07-30T02:44:40.060Z,11.98
2022-07-30T02:49:42.782Z,13.13
2022-07-30T02:54:47.989Z,15.00
2022-07-30T02:59:51.742Z,12.52
2022-07-30T03:04:54.922Z,9.82
2022-07-30T03:09:58.238Z,15.00
2022-07-30T03:15:03.866Z,16.35
2022-07-30T03:20:09.785Z,11.13
2022-07-30T03:25:15.320Z,11.63
2022-07-30T03:30:17.234Z,11.63
2022-07-30T03:35:21.813Z,10.60
2022-07-30T03:40:24.366Z,8.90
2022-07-30T03:50:36.935Z,12.68
2022-07-30T03:55:39.557Z,11.77
2022-07-30T04:01:07.635Z,9.15
2022-07-30T04:06:09.890Z,11.40
2022-07-30T04:11:11.635Z,8.63
2022-07-30T04:16:59.316Z,10.23
2022-07-30T04:22:03.143Z,11.18
2022-07-30T04:27:06.663Z,10.88
2022-07-30T04:32:09.760Z,11.65
2022-07-30T04:37:34.864Z,13.85
2022-07-30T04:42:37.143Z,11.88
2022-07-30T04:47:41.560Z,13.48
2022-07-30T04:53:06.394Z,12.90
2022-07-30T04:58:12.225Z,14.63
2022-07-30T05:03:16.249Z,18.58
2022-07-30T05:08:25.577Z,13.77
2022-07-30T05:13:34.167Z,14.27
2022-07-30T05:18:37.756Z,15.77
2022-07-30T05:23:39.763Z,16.00
2022-07-30T05:28:55.029Z,14.50
2022-07-30T05:34:03.510Z,13.15
2022-07-30T05:39:16.296Z,13.68
2022-07-30T05:44:27.323Z,12.73
2022-07-30T05:54:40.540Z,14.43
2022-07-30T06:00:06.365Z,15.15
2022-07-30T06:05:24.671Z,16.55
2022-07-30T06:10:27.007Z,16.90
2022-07-30T06:15:28.711Z,16.20
2022-07-30T06:20:30.541Z,17.40
2022-07-30T06:25:55.290Z,18.08
2022-07-30T06:30:57.416Z,17.05
2022-07-30T06:36:02.223Z,19.27
2022-07-30T06:41:10.109Z,19.38
2022-07-30T06:46:23.990Z,17.77
2022-07-30T06:51:27.656Z,15.40
2022-07-30T06:56:29.746Z,16.30
2022-07-30T07:01:37.560Z,14.98
2022-07-30T07:06:39.548Z,15.43
2022-07-30T07:11:42.230Z,12.05
2022-07-30T07:16:49.269Z,12.27
2022-07-30T07:22:11.753Z,15.10
2022-07-30T07:27:15.718Z,12.43
2022-07-30T07:32:19.696Z,12.48
2022-07-30T07:37:22.248Z,13.95
2022-07-30T07:42:24.010Z,11.30
2022-07-30T07:47:26.532Z,14.98
2022-07-30T07:52:47.524Z,11.90
2022-07-30T07:57:49.780Z,13.60
2022-07-30T08:02:51.714Z,11.43
2022-07-30T08:07:54.133Z,14.38
2022-07-30T08:12:55.789Z,10.97
2022-07-30T08:18:23.206Z,10.25
2022-07-30T08:23:45.279Z,10.30
2022-07-30T08:28:47.641Z,11.40
2022-07-30T08:38:51.860Z,8.53
2022-07-30T08:43:55.509Z,9.80
2022-07-30T08:48:58.470Z,9.13
2022-07-30T08:54:01.434Z,9.13
2022-07-30T08:59:03.394Z,7.50
2022-07-30T09:09:07.895Z,7.43
2022-07-30T09:14:12.646Z,7.95
2022-07-30T09:19:19.608Z,10.23
2022-07-30T09:24:21.955Z,8.20
2022-07-30T09:29:29.267Z,9.90
2022-07-30T09:34:49.774Z,10.88
2022-07-30T09:40:23.749Z,8.50
2022-07-30T09:46:01.555Z,8.40
2022-07-30T09:51:03.444Z,10.52
2022-07-30T09:56:25.009Z,10.20
2022-07-30T10:01:49.800Z,5.88
2022-07-30T10:07:25.026Z,9.13
2022-07-30T10:12:30.311Z,12.13
2022-07-30T10:17:34.356Z,6.68
2022-07-30T10:23:09.093Z,8.23
2022-07-30T10:28:12.965Z,8.68
2022-07-30T10:33:34.876Z,5.78
2022-07-30T10:38:41.659Z,8.27
2022-07-30T10:44:29.420Z,4.53
2022-07-30T10:49:40.509Z,6.07
2022-07-30T10:54:47.412Z,5.63
2022-07-30T10:59:52.409Z,7.13
2022-07-30T11:05:43.791Z,7.80
2022-07-30T11:10:44.989Z,4.95
2022-07-30T11:15:52.754Z,6.07
2022-07-30T11:21:15.747Z,7.10
2022-07-30T11:26:40.896Z,4.93
2022-07-30T11:32:07.422Z,6.07
2022-07-30T11:37:18.427Z,5.30
2022-07-30T11:42:31.033Z,4.32
2022-07-30T11:47:33.533Z,5.25
2022-07-30T11:52:35.421Z,4.90
2022-07-30T11:57:41.328Z,4.95
2022-07-30T12:02:43.340Z,7.47
2022-07-30T12:12:47.681Z,8.93
2022-07-30T12:17:51.414Z,4.72
2022-07-30T12:23:03.671Z,5.70
2022-07-30T12:28:05.365Z,4.30
2022-07-30T12:33:07.529Z,6.90
2022-07-30T12:38:09.630Z,4.97
2022-07-30T12:43:13.617Z,8.52
2022-07-30T12:48:15.684Z,4.28
2022-07-30T12:58:19.622Z,2.83
2022-07-30T13:03:23.358Z,4.63
2022-07-30T13:08:57.530Z,7.05
2022-07-30T13:14:00.135Z,7.57
2022-07-30T13:19:08.355Z,4.97
2022-07-30T13:24:11.019Z,4.13
2022-07-30T13:29:20.034Z,6.18
2022-07-30T13:34:21.810Z,3.75
2022-07-30T13:39:23.883Z,5.65
2022-07-30T13:44:25.648Z,5.97
2022-07-30T13:49:27.435Z,5.47
2022-07-30T13:54:30.670Z,5.55
2022-07-30T13:59:32.324Z,5.20
2022-07-30T14:04:34.042Z,8.38
2022-07-30T14:09:44.812Z,4.68
2022-07-30T14:14:48.819Z,5.38
2022-07-30T14:19:54.258Z,5.18
2022-07-30T14:24:55.982Z,5.40
2022-07-30T14:29:57.745Z,7.87
2022-07-30T14:34:59.497Z,7.07
2022-07-30T14:40:01.670Z,5.30
2022-07-30T14:45:04.909Z,5.53
2022-07-30T14:50:07.753Z,6.03
2022-07-30T14:55:09.837Z,3.25
2022-07-30T15:00:12.005Z,5.60
2022-07-30T15:05:13.718Z,4.68
2022-07-30T15:10:15.635Z,4.60
2022-07-30T15:15:17.670Z,4.25
2022-07-30T15:20:19.854Z,5.10
2022-07-30T15:30:25.577Z,6.47
2022-07-30T15:35:27.322Z,6.68
2022-07-30T15:40:29.354Z,4.38
2022-07-30T15:45:31.164Z,5.35
2022-07-30T15:50:53.265Z,4.93
2022-07-30T15:55:54.924Z,4.75
2022-07-30T16:00:56.821Z,4.53
2022-07-30T16:05:58.549Z,4.40
2022-07-30T16:11:03.714Z,6.88
2022-07-30T16:16:05.486Z,4.45
2022-07-30T16:21:07.188Z,11.05
2022-07-30T16:26:09.375Z,5.40
2022-07-30T16:36:14.223Z,4.20
2022-07-30T16:41:16.121Z,4.50
2022-07-30T16:46:19.075Z,3.88
2022-07-30T16:51:21.314Z,4.72
2022-07-30T16:56:22.987Z,8.27
2022-07-30T17:01:24.720Z,4.50
2022-07-30T17:06:26.586Z,5.25
2022-07-30T17:11:47.073Z,3.67
2022-07-30T17:16:50.098Z,6.70
2022-07-30T17:21:51.864Z,8.25
2022-07-30T17:26:53.647Z,4.65
2022-07-30T17:31:55.572Z,12.93
2022-07-30T17:36:57.723Z,7.85
2022-07-30T17:42:03.006Z,4.80
2022-07-30T17:47:05.312Z,6.10
2022-07-30T17:52:07.139Z,7.10
2022-07-30T17:57:09.151Z,3.78
2022-07-30T18:02:11.094Z,6.05
2022-07-30T18:07:12.859Z,4.40
2022-07-30T18:12:14.601Z,5.03
2022-07-30T18:17:16.360Z,3.40
2022-07-30T18:22:29.028Z,8.50
2022-07-30T18:27:31.678Z,4.78
2022-07-30T18:32:33.423Z,7.80
2022-07-30T18:37:41.918Z,6.30
2022-07-30T18:42:43.818Z,9.55
2022-07-30T18:47:46.592Z,5.97
2022-07-30T18:52:48.432Z,5.55
2022-07-30T18:57:52.143Z,6.40
2022-07-30T19:02:54.150Z,6.70
2022-07-30T19:07:58.285Z,5.35
2022-07-30T19:13:01.255Z,6.35
2022-07-30T19:18:03.003Z,5.90
2022-07-30T19:23:06.722Z,11.57
2022-07-30T19:28:08.588Z,10.18
2022-07-30T19:33:15.237Z,5.10
2022-07-30T19:38:21.768Z,5.88
2022-07-30T19:43:25.690Z,5.65
2022-07-30T19:48:31.900Z,5.03
2022-07-30T19:53:34.660Z,7.70
2022-07-30T19:58:36.718Z,6.45
2022-07-30T20:08:41.803Z,4.75
2022-07-30T20:13:46.889Z,6.53
2022-07-30T20:18:52.177Z,8.30
2022-07-30T20:23:54.500Z,6.85
2022-07-30T20:28:56.183Z,8.93
2022-07-30T20:34:00.799Z,7.68
2022-07-30T20:39:03.252Z,6.83
2022-07-30T20:44:06.725Z,7.80
2022-07-30T20:49:10.406Z,7.53
2022-07-30T20:54:14.341Z,5.53
2022-07-30T20:59:16.595Z,6.28
2022-07-30T21:04:23.969Z,7.15
2022-07-30T21:09:49.836Z,5.80
2022-07-30T21:14:52.944Z,11.02
2022-07-30T21:19:54.603Z,5.53
2022-07-30T21:24:56.687Z,6.73
2022-07-30T21:29:58.589Z,6.17
2022-07-30T21:35:08.367Z,7.95
2022-07-30T21:40:10.864Z,7.38
2022-07-30T21:45:12.697Z,8.65
2022-07-30T21:50:14.646Z,7.57
2022-07-30T21:55:18.242Z,7.63
2022-07-30T22:00:44.595Z,7.38
2022-07-30T22:05:46.420Z,6.45
2022-07-30T22:10:48.529Z,5.50
2022-07-30T22:15:52.596Z,6.70
2022-07-30T22:26:00.169Z,6.03
2022-07-30T22:31:02.046Z,6.45
2022-07-30T22:36:09.857Z,7.03
2022-07-30T22:41:13.980Z,8.02
2022-07-30T22:52:01.351Z,6.32
2022-07-30T22:57:03.895Z,7.85
2022-07-30T23:02:06.517Z,7.47
2022-07-30T23:07:14.100Z,6.20
2022-07-30T23:12:21.303Z,6.53
2022-07-30T23:12:30.468Z,6.07
2022-07-30T23:17:23.145Z,8.95
2022-07-30T23:22:25.692Z,6.93
2022-07-30T23:27:27.610Z,7.25
2022-07-30T23:32:29.293Z,9.10
2022-07-30T23:37:47.879Z,7.32
2022-07-30T23:42:51.074Z,7.82
2022-07-30T23:48:02.709Z,8.80
2022-07-30T23:53:05.132Z,9.13
2022-07-30T23:58:07.019Z,7.40
